createdAt,value
2019-01-23T00:00:24.000Z,98732
2019-01-23T00:02:24.000Z,98727
2019-01-23T00:04:24.000Z,98730
2019-01-23T00:06:24.000Z,98723
2019-01-23T00:08:24.000Z,98726
2019-01-23T00:10:09.000Z,98719
2019-01-23T00:11:24.000Z,98717
2019-01-23T00:12:24.000Z,98714
2019-01-23T00:14:24.000Z,98712
2019-01-23T00:16:24.000Z,98710
2019-01-23T00:18:09.000Z,98707
2019-01-23T00:19:24.000Z,98708
2019-01-23T00:21:24.000Z,98704
2019-01-23T00:22:24.000Z,98709
2019-01-23T00:23:24.000Z,98707
2019-01-23T00:25:24.000Z,98706
2019-01-23T00:26:24.000Z,98706
2019-01-23T00:28:24.000Z,98703
2019-01-23T00:29:24.000Z,98705
2019-01-23T00:31:09.000Z,98701
2019-01-23T00:32:24.000Z,98696
2019-01-23T00:33:24.000Z,98701
2019-01-23T00:35:24.000Z,98697
2019-01-23T00:37:24.000Z,98697
2019-01-23T00:39:24.000Z,98692
2019-01-23T00:41:09.000Z,98691
2019-01-23T00:42:24.000Z,98690
2019-01-23T00:44:24.000Z,98692
2019-01-23T00:45:24.000Z,98697
2019-01-23T00:46:24.000Z,98689
2019-01-23T00:47:24.000Z,98686
2019-01-23T00:49:24.000Z,98676
2019-01-23T00:50:24.000Z,98684
2019-01-23T00:51:24.000Z,98686
2019-01-23T00:53:24.000Z,98674
2019-01-23T00:54:24.000Z,98682
2019-01-23T00:56:24.000Z,98679
2019-01-23T00:57:24.000Z,98675
2019-01-23T00:59:09.000Z,98675
2019-01-23T01:01:24.000Z,98673
2019-01-23T01:03:24.000Z,98679
2019-01-23T01:04:24.000Z,98676
2019-01-23T01:06:09.000Z,98676
2019-01-23T01:07:09.000Z,98639
2019-01-23T01:09:24.000Z,98673
2019-01-23T01:10:24.000Z,98672
2019-01-23T01:12:24.000Z,98675
2019-01-23T01:14:24.000Z,98676
2019-01-23T01:16:08.000Z,98679
2019-01-23T01:17:24.000Z,98673
2019-01-23T01:19:24.000Z,98675
2019-01-23T01:21:24.000Z,98677
2019-01-23T01:23:24.000Z,98672
2019-01-23T01:24:24.000Z,98672
2019-01-23T01:26:24.000Z,98674
2019-01-23T01:28:24.000Z,98672
2019-01-23T01:30:23.000Z,98674
2019-01-23T01:31:24.000Z,98670
2019-01-23T01:32:24.000Z,98668
2019-01-23T01:34:24.000Z,98664
2019-01-23T01:36:08.000Z,98669
2019-01-23T01:37:24.000Z,98668
2019-01-23T01:39:24.000Z,98669
2019-01-23T01:40:53.000Z,98666
2019-01-23T01:42:24.000Z,98668
2019-01-23T01:44:24.000Z,98666
2019-01-23T01:46:24.000Z,98667
2019-01-23T01:48:08.000Z,98661
2019-01-23T01:49:24.000Z,98662
2019-01-23T01:51:08.000Z,98663
2019-01-23T01:52:24.000Z,98658
2019-01-23T01:53:24.000Z,98659
2019-01-23T01:55:24.000Z,98660
2019-01-23T01:57:24.000Z,98656
2019-01-23T01:59:08.000Z,98650
2019-01-23T02:00:24.000Z,98652
2019-01-23T02:02:24.000Z,98654
2019-01-23T02:04:24.000Z,98656
2019-01-23T02:06:24.000Z,98656
2019-01-23T02:08:08.000Z,98648
2019-01-23T02:09:24.000Z,98645
2019-01-23T02:11:24.000Z,98641
2019-01-23T02:13:24.000Z,98646
2019-01-23T02:15:09.000Z,98642
2019-01-23T02:16:09.000Z,98641
2019-01-23T02:17:24.000Z,98643
2019-01-23T02:19:24.000Z,98642
2019-01-23T02:20:24.000Z,98628
2019-01-23T02:21:24.000Z,98632
2019-01-23T02:23:09.000Z,98620
2019-01-23T02:25:09.000Z,98629
2019-01-23T02:26:24.000Z,98621
2019-01-23T02:28:24.000Z,98615
2019-01-23T02:29:54.000Z,98611
2019-01-23T02:31:24.000Z,98612
2019-01-23T02:33:24.000Z,98603
2019-01-23T02:35:24.000Z,98602
2019-01-23T02:36:24.000Z,98601
2019-01-23T02:38:24.000Z,98603
2019-01-23T02:40:24.000Z,98597
2019-01-23T02:42:24.000Z,98599
2019-01-23T02:44:24.000Z,98602
2019-01-23T02:46:24.000Z,98599
2019-01-23T02:48:24.000Z,98596
2019-01-23T02:50:24.000Z,98594
2019-01-23T02:51:54.000Z,98592
2019-01-23T02:53:24.000Z,98588
2019-01-23T02:55:24.000Z,98591
2019-01-23T02:57:24.000Z,98588
2019-01-23T02:59:09.000Z,98587
2019-01-23T03:01:24.000Z,98589
2019-01-23T03:03:24.000Z,98583
2019-01-23T03:04:24.000Z,98582
2019-01-23T03:06:24.000Z,98585
2019-01-23T03:07:24.000Z,98583
2019-01-23T03:09:24.000Z,98577
2019-01-23T03:11:24.000Z,98580
2019-01-23T03:13:24.000Z,98578
2019-01-23T03:14:24.000Z,98578
2019-01-23T03:15:24.000Z,98579
2019-01-23T03:17:09.000Z,98581
2019-01-23T03:18:24.000Z,98577
2019-01-23T03:19:24.000Z,98574
2019-01-23T03:20:24.000Z,98575
2019-01-23T03:22:24.000Z,98578
2019-01-23T03:23:24.000Z,98574
2019-01-23T03:25:24.000Z,98576
2019-01-23T03:27:09.000Z,98576
2019-01-23T03:28:24.000Z,98572
2019-01-23T03:30:24.000Z,98571
2019-01-23T03:31:24.000Z,98571
2019-01-23T03:32:54.000Z,98576
2019-01-23T03:34:24.000Z,98574
2019-01-23T03:36:09.000Z,98573
2019-01-23T03:37:24.000Z,98571
2019-01-23T03:39:24.000Z,98572
2019-01-23T03:41:24.000Z,98564
2019-01-23T03:43:24.000Z,98565
2019-01-23T03:45:24.000Z,98564
2019-01-23T03:46:24.000Z,98565
2019-01-23T03:48:24.000Z,98563
2019-01-23T03:50:24.000Z,98572
2019-01-23T03:52:24.000Z,98569
2019-01-23T03:54:24.000Z,98571
2019-01-23T03:55:24.000Z,98566
2019-01-23T03:57:24.000Z,98570
2019-01-23T03:58:24.000Z,98571
2019-01-23T04:00:24.000Z,98567
2019-01-23T04:02:24.000Z,98568
2019-01-23T04:04:24.000Z,98569
2019-01-23T04:05:24.000Z,98568
2019-01-23T04:07:24.000Z,98572
2019-01-23T04:09:24.000Z,98568
2019-01-23T04:10:24.000Z,98565
2019-01-23T04:12:24.000Z,98570
2019-01-23T04:14:24.000Z,98566
2019-01-23T04:16:24.000Z,98564
2019-01-23T04:18:24.000Z,98562
2019-01-23T04:19:24.000Z,98560
2019-01-23T04:20:24.000Z,98564
2019-01-23T04:21:24.000Z,98561
2019-01-23T04:23:24.000Z,98559
2019-01-23T04:24:24.000Z,98560
2019-01-23T04:26:24.000Z,98559
2019-01-23T04:27:24.000Z,98560
2019-01-23T04:29:24.000Z,98557
2019-01-23T04:31:09.000Z,98555
2019-01-23T04:32:24.000Z,98560
2019-01-23T04:34:24.000Z,98553
2019-01-23T04:36:09.000Z,98557
2019-01-23T04:37:24.000Z,98553
2019-01-23T04:38:24.000Z,98550
2019-01-23T04:40:24.000Z,98550
2019-01-23T04:41:24.000Z,98547
2019-01-23T04:43:24.000Z,98549
2019-01-23T04:45:24.000Z,98547
2019-01-23T04:47:24.000Z,98547
2019-01-23T04:49:24.000Z,98551
2019-01-23T04:51:24.000Z,98546
2019-01-23T04:53:24.000Z,98548
2019-01-23T04:55:24.000Z,98546
2019-01-23T04:57:09.000Z,98548
2019-01-23T04:58:24.000Z,98551
2019-01-23T04:59:24.000Z,98546
2019-01-23T05:01:24.000Z,98545
2019-01-23T05:02:24.000Z,98550
2019-01-23T05:03:24.000Z,98550
2019-01-23T05:04:24.000Z,98553
2019-01-23T05:06:24.000Z,98548
2019-01-23T05:08:24.000Z,98554
2019-01-23T05:10:24.000Z,98551
2019-01-23T05:11:24.000Z,98549
2019-01-23T05:13:24.000Z,98548
2019-01-23T05:14:24.000Z,98555
2019-01-23T05:16:24.000Z,98551
2019-01-23T05:18:24.000Z,98548
2019-01-23T05:20:24.000Z,98548
2019-01-23T05:21:24.000Z,98548
2019-01-23T05:23:24.000Z,98543
2019-01-23T05:24:24.000Z,98546
2019-01-23T05:26:24.000Z,98556
2019-01-23T05:28:24.000Z,98543
2019-01-23T05:29:54.000Z,98544
2019-01-23T05:31:24.000Z,98541
2019-01-23T05:33:09.000Z,98541
2019-01-23T05:34:24.000Z,98539
2019-01-23T05:36:09.000Z,98543
2019-01-23T05:37:24.000Z,98540
2019-01-23T05:39:24.000Z,98547
2019-01-23T05:40:24.000Z,98543
2019-01-23T05:42:24.000Z,98545
2019-01-23T05:44:24.000Z,98548
2019-01-23T05:45:54.000Z,98546
2019-01-23T05:47:24.000Z,98546
2019-01-23T05:49:24.000Z,98546
2019-01-23T05:51:24.000Z,98548
2019-01-23T05:53:09.000Z,98550
2019-01-23T05:54:24.000Z,98548
2019-01-23T05:55:24.000Z,98552
2019-01-23T05:57:09.000Z,98545
2019-01-23T05:58:09.000Z,98547
2019-01-23T05:59:54.000Z,98547
2019-01-23T06:02:24.000Z,98550
2019-01-23T06:04:24.000Z,98555
2019-01-23T06:05:24.000Z,98550
2019-01-23T06:07:09.000Z,98555
2019-01-23T06:08:24.000Z,98553
2019-01-23T06:10:24.000Z,98549
2019-01-23T06:12:24.000Z,98554
2019-01-23T06:13:24.000Z,98557
2019-01-23T06:15:24.000Z,98555
2019-01-23T06:17:24.000Z,98555
2019-01-23T06:18:24.000Z,98553
2019-01-23T06:20:09.000Z,98557
2019-01-23T06:21:54.000Z,98558
2019-01-23T06:23:24.000Z,98558
2019-01-23T06:25:24.000Z,98558
2019-01-23T06:27:24.000Z,98556
2019-01-23T06:29:24.000Z,98555
2019-01-23T06:31:09.000Z,98563
2019-01-23T06:32:24.000Z,98556
2019-01-23T06:33:24.000Z,98558
2019-01-23T06:35:24.000Z,98555
2019-01-23T06:36:24.000Z,98555
2019-01-23T06:38:24.000Z,98556
2019-01-23T06:40:24.000Z,98557
2019-01-23T06:42:24.000Z,98556
2019-01-23T06:44:24.000Z,98559
2019-01-23T06:46:24.000Z,98557
2019-01-23T06:47:24.000Z,98554
2019-01-23T06:48:24.000Z,98556
2019-01-23T06:50:24.000Z,98559
2019-01-23T06:51:24.000Z,98558
2019-01-23T06:53:09.000Z,98565
2019-01-23T06:55:24.000Z,98559
2019-01-23T06:56:24.000Z,98559
2019-01-23T06:58:24.000Z,98561
2019-01-23T07:00:24.000Z,98557
2019-01-23T07:02:24.000Z,98561
2019-01-23T07:03:24.000Z,98559
2019-01-23T07:05:09.000Z,98554
2019-01-23T07:06:24.000Z,98559
2019-01-23T07:08:09.000Z,98565
2019-01-23T07:09:24.000Z,98560
2019-01-23T07:10:24.000Z,98562
2019-01-23T07:12:24.000Z,98561
2019-01-23T07:14:09.000Z,98563
2019-01-23T07:15:24.000Z,98564
2019-01-23T07:17:09.000Z,98570
2019-01-23T07:18:24.000Z,98572
2019-01-23T07:20:24.000Z,98575
2019-01-23T07:22:24.000Z,98574
2019-01-23T07:24:24.000Z,98580
2019-01-23T07:25:24.000Z,98577
2019-01-23T07:27:24.000Z,98581
2019-01-23T07:28:24.000Z,98576
2019-01-23T07:29:24.000Z,98577
2019-01-23T07:31:24.000Z,98576
2019-01-23T07:33:24.000Z,98571
2019-01-23T07:35:09.000Z,98578
2019-01-23T07:37:25.000Z,98577
2019-01-23T07:39:25.000Z,98579
2019-01-23T07:40:25.000Z,98582
2019-01-23T07:42:25.000Z,98582
2019-01-23T07:43:25.000Z,98580
2019-01-23T07:44:25.000Z,98587
2019-01-23T07:46:25.000Z,98580
2019-01-23T07:47:25.000Z,98583
2019-01-23T07:48:25.000Z,98580
2019-01-23T07:49:25.000Z,98586
2019-01-23T07:51:25.000Z,98577
2019-01-23T07:53:25.000Z,98579
2019-01-23T07:55:25.000Z,98579
2019-01-23T07:57:09.000Z,98576
2019-01-23T07:58:25.000Z,98577
2019-01-23T08:00:25.000Z,98591
2019-01-23T08:02:25.000Z,98582
2019-01-23T08:04:25.000Z,98586
2019-01-23T08:06:25.000Z,98585
2019-01-23T08:07:25.000Z,98583
2019-01-23T08:08:25.000Z,98589
2019-01-23T08:10:25.000Z,98585
2019-01-23T08:11:25.000Z,98589
2019-01-23T08:13:10.000Z,98589
2019-01-23T08:15:25.000Z,98584
2019-01-23T08:16:25.000Z,98586
2019-01-23T08:18:09.000Z,98586
2019-01-23T08:19:25.000Z,98591
2019-01-23T08:20:25.000Z,98585
2019-01-23T08:22:09.000Z,98578
2019-01-23T08:23:25.000Z,98582
2019-01-23T08:24:25.000Z,98581
2019-01-23T08:25:54.000Z,98582
2019-01-23T08:27:25.000Z,98589
2019-01-23T08:28:25.000Z,98588
2019-01-23T08:30:25.000Z,98585
2019-01-23T08:32:25.000Z,98585
2019-01-23T08:33:25.000Z,98593
2019-01-23T08:34:25.000Z,98585
2019-01-23T08:36:09.000Z,98577
2019-01-23T08:37:25.000Z,98580
2019-01-23T08:38:25.000Z,98576
2019-01-23T08:40:24.000Z,98575
2019-01-23T08:41:24.000Z,98578
2019-01-23T08:43:24.000Z,98571
2019-01-23T08:45:09.000Z,98566
2019-01-23T08:47:24.000Z,98570
2019-01-23T08:48:24.000Z,98568
2019-01-23T08:50:24.000Z,98578
2019-01-23T08:52:24.000Z,98579
2019-01-23T08:53:24.000Z,98573
2019-01-23T08:54:24.000Z,98573
2019-01-23T08:56:24.000Z,98582
2019-01-23T08:58:09.000Z,98584
2019-01-23T08:59:24.000Z,98591
2019-01-23T09:01:24.000Z,98584
2019-01-23T09:03:24.000Z,98590
2019-01-23T09:04:24.000Z,98585
2019-01-23T09:06:24.000Z,98587
2019-01-23T09:08:24.000Z,98590
2019-01-23T09:09:24.000Z,98583
2019-01-23T09:11:24.000Z,98589
2019-01-23T09:13:09.000Z,98592
2019-01-23T09:14:24.000Z,98599
2019-01-23T09:15:24.000Z,98596
2019-01-23T09:17:24.000Z,98599
2019-01-23T09:19:24.000Z,98599
2019-01-23T09:21:24.000Z,98605
2019-01-23T09:23:24.000Z,98601
2019-01-23T09:25:24.000Z,98603
2019-01-23T09:27:24.000Z,98604
2019-01-23T09:29:24.000Z,98613
2019-01-23T09:31:09.000Z,98623
2019-01-23T09:32:24.000Z,98619
2019-01-23T09:34:24.000Z,98627
2019-01-23T09:36:09.000Z,98625
2019-01-23T09:37:24.000Z,98629
2019-01-23T09:38:24.000Z,98628
2019-01-23T09:39:24.000Z,98624
2019-01-23T09:41:09.000Z,98636
2019-01-23T09:42:24.000Z,98638
2019-01-23T09:43:24.000Z,98634
2019-01-23T09:45:24.000Z,98631
2019-01-23T09:47:09.000Z,98636
2019-01-23T09:48:24.000Z,98635
2019-01-23T09:50:24.000Z,98631
2019-01-23T09:52:24.000Z,98626
2019-01-23T09:54:24.000Z,98630
2019-01-23T09:56:24.000Z,98637
2019-01-23T09:58:24.000Z,98631
2019-01-23T10:00:24.000Z,98633
2019-01-23T10:02:24.000Z,98634
2019-01-23T10:03:24.000Z,98636
2019-01-23T10:04:24.000Z,98632
2019-01-23T10:06:09.000Z,98633
2019-01-23T10:07:24.000Z,98630
2019-01-23T10:09:24.000Z,98642
2019-01-23T10:11:24.000Z,98636
2019-01-23T10:13:24.000Z,98643
2019-01-23T10:16:24.000Z,98640
2019-01-23T10:18:24.000Z,98648
2019-01-23T10:20:24.000Z,98647
2019-01-23T10:24:40.000Z,98636
2019-01-23T10:26:26.000Z,98635
2019-01-23T10:27:26.000Z,98634
2019-01-23T10:29:26.000Z,98633
2019-01-23T10:31:10.000Z,98637
2019-01-23T10:32:26.000Z,98634
2019-01-23T10:34:26.000Z,98634
2019-01-23T10:35:26.000Z,98635
2019-01-23T10:37:10.000Z,98632
2019-01-23T10:38:26.000Z,98633
2019-01-23T10:40:26.000Z,98636
2019-01-23T10:41:26.000Z,98633
2019-01-23T10:43:26.000Z,98631
2019-01-23T10:45:26.000Z,98631
2019-01-23T10:46:26.000Z,98634
2019-01-23T10:48:26.000Z,98645
2019-01-23T10:50:26.000Z,98636
2019-01-23T10:52:26.000Z,98634
2019-01-23T10:54:26.000Z,98653
2019-01-23T10:56:11.000Z,98642
2019-01-23T10:57:26.000Z,98639
2019-01-23T10:58:26.000Z,98647
2019-01-23T11:00:26.000Z,98644
2019-01-23T11:02:26.000Z,98645
2019-01-23T11:04:26.000Z,98641
2019-01-23T11:05:26.000Z,98644
2019-01-23T11:07:11.000Z,98649
2019-01-23T11:08:26.000Z,98647
2019-01-23T11:09:56.000Z,98648
2019-01-23T11:11:26.000Z,98640
2019-01-23T11:12:26.000Z,98654
2019-01-23T11:14:11.000Z,98652
2019-01-23T11:15:26.000Z,98640
2019-01-23T11:17:11.000Z,98650
2019-01-23T11:18:26.000Z,98647
2019-01-23T11:20:11.000Z,98641
2019-01-23T11:21:26.000Z,98641
2019-01-23T11:22:56.000Z,98647
2019-01-23T11:24:26.000Z,98647
2019-01-23T11:26:26.000Z,98657
2019-01-23T11:28:26.000Z,98648
2019-01-23T11:30:26.000Z,98650
2019-01-23T11:32:11.000Z,98645
2019-01-23T11:34:26.000Z,98645
2019-01-23T11:35:26.000Z,98646
2019-01-23T11:36:26.000Z,98647
2019-01-23T11:38:26.000Z,98646
2019-01-23T11:39:26.000Z,98649
2019-01-23T11:40:26.000Z,98642
2019-01-23T11:42:26.000Z,98643
2019-01-23T11:44:26.000Z,98644
2019-01-23T11:45:26.000Z,98650
2019-01-23T11:47:26.000Z,98656
2019-01-23T11:49:26.000Z,98649
2019-01-23T11:51:26.000Z,98655
2019-01-23T11:52:26.000Z,98647
2019-01-23T11:54:10.000Z,98652
2019-01-23T11:55:26.000Z,98659
2019-01-23T11:57:26.000Z,98651
2019-01-23T11:59:26.000Z,98653
2019-01-23T12:01:10.000Z,98656
2019-01-23T12:02:26.000Z,98656
2019-01-23T12:04:26.000Z,98655
2019-01-23T12:05:26.000Z,98650
2019-01-23T12:07:26.000Z,98660
2019-01-23T12:09:26.000Z,98660
2019-01-23T12:10:56.000Z,98663
2019-01-23T12:12:26.000Z,98664
2019-01-23T12:13:26.000Z,98668
2019-01-23T12:15:10.000Z,98662
2019-01-23T12:16:26.000Z,98661
2019-01-23T12:18:26.000Z,98657
2019-01-23T12:19:26.000Z,98659
2019-01-23T12:21:26.000Z,98652
2019-01-23T12:23:26.000Z,98656
2019-01-23T12:25:26.000Z,98653
2019-01-23T12:26:26.000Z,98651
2019-01-23T12:27:26.000Z,98655
2019-01-23T12:29:26.000Z,98652
2019-01-23T12:30:26.000Z,98647
2019-01-23T12:32:26.000Z,98650
2019-01-23T12:34:26.000Z,98649
2019-01-23T12:36:26.000Z,98648
2019-01-23T12:38:26.000Z,98644
2019-01-23T12:40:11.000Z,98645
2019-01-23T12:42:10.000Z,98650
2019-01-23T12:43:26.000Z,98649
2019-01-23T12:45:26.000Z,98649
2019-01-23T12:47:26.000Z,98653
2019-01-23T12:49:26.000Z,98659
2019-01-23T12:51:26.000Z,98659
2019-01-23T12:52:26.000Z,98661
2019-01-23T12:54:26.000Z,98660
2019-01-23T12:55:26.000Z,98664
2019-01-23T12:57:26.000Z,98662
2019-01-23T12:59:26.000Z,98660
2019-01-23T13:00:26.000Z,98656
2019-01-23T13:02:26.000Z,98661
2019-01-23T13:04:26.000Z,98658
2019-01-23T13:06:26.000Z,98653
2019-01-23T13:08:26.000Z,98653
2019-01-23T13:09:26.000Z,98656
2019-01-23T13:11:26.000Z,98657
2019-01-23T13:13:26.000Z,98662
2019-01-23T13:15:26.000Z,98661
2019-01-23T13:17:26.000Z,98662
2019-01-23T13:18:26.000Z,98664
2019-01-23T13:19:26.000Z,98661
2019-01-23T13:21:26.000Z,98665
2019-01-23T13:23:26.000Z,98665
2019-01-23T13:24:26.000Z,98663
2019-01-23T13:25:26.000Z,98662
2019-01-23T13:27:26.000Z,98665
2019-01-23T13:29:26.000Z,98669
2019-01-23T13:30:26.000Z,98676
2019-01-23T13:32:11.000Z,98674
2019-01-23T13:33:11.000Z,98680
2019-01-23T13:34:26.000Z,98672
2019-01-23T13:36:26.000Z,98673
2019-01-23T13:38:26.000Z,98671
2019-01-23T13:39:26.000Z,98668
2019-01-23T13:41:26.000Z,98674
2019-01-23T13:43:26.000Z,98674
2019-01-23T13:45:26.000Z,98678
2019-01-23T13:47:26.000Z,98678
2019-01-23T13:49:11.000Z,98678
2019-01-23T13:50:26.000Z,98681
2019-01-23T13:51:26.000Z,98683
2019-01-23T13:53:11.000Z,98683
2019-01-23T13:54:26.000Z,98687
2019-01-23T13:55:26.000Z,98691
2019-01-23T13:57:26.000Z,98692
2019-01-23T13:58:26.000Z,98692
2019-01-23T14:00:26.000Z,98691
2019-01-23T14:02:11.000Z,98702
2019-01-23T14:04:26.000Z,98703
2019-01-23T14:06:26.000Z,98700
2019-01-23T14:08:26.000Z,98697
2019-01-23T14:10:26.000Z,98719
2019-01-23T14:12:26.000Z,98726
2019-01-23T14:14:11.000Z,98717
2019-01-23T14:15:26.000Z,98713
2019-01-23T14:17:26.000Z,98714
2019-01-23T14:19:26.000Z,98718
2019-01-23T14:21:26.000Z,98729
2019-01-23T14:22:26.000Z,98725
2019-01-23T14:24:26.000Z,98727
2019-01-23T14:25:26.000Z,98722
2019-01-23T14:27:26.000Z,98723
2019-01-23T14:29:11.000Z,98716
2019-01-23T14:30:26.000Z,98712
2019-01-23T14:31:56.000Z,98712
2019-01-23T14:33:26.000Z,98719
2019-01-23T14:35:26.000Z,98721
2019-01-23T14:36:26.000Z,98727
2019-01-23T14:37:56.000Z,98730
2019-01-23T14:39:26.000Z,98732
2019-01-23T14:41:26.000Z,98739
2019-01-23T14:42:26.000Z,98729
2019-01-23T14:43:26.000Z,98738
2019-01-23T14:45:11.000Z,98736
2019-01-23T14:46:26.000Z,98736
2019-01-23T14:47:26.000Z,98742
2019-01-23T14:49:26.000Z,98749
2019-01-23T14:50:26.000Z,98747
2019-01-23T14:52:26.000Z,98753
2019-01-23T14:53:26.000Z,98751
2019-01-23T14:55:26.000Z,98757
2019-01-23T14:57:26.000Z,98757
2019-01-23T14:59:26.000Z,98759
2019-01-23T15:00:26.000Z,98759
2019-01-23T15:01:26.000Z,98759
2019-01-23T15:03:26.000Z,98758
2019-01-23T15:04:26.000Z,98773
2019-01-23T15:06:26.000Z,98776
2019-01-23T15:07:26.000Z,98772
2019-01-23T15:09:11.000Z,98766
2019-01-23T15:10:26.000Z,98771
2019-01-23T15:12:11.000Z,98771
2019-01-23T15:13:26.000Z,98772
2019-01-23T15:14:26.000Z,98774
2019-01-23T15:16:26.000Z,98774
2019-01-23T15:17:26.000Z,98776
2019-01-23T15:19:11.000Z,98785
2019-01-23T15:20:26.000Z,98787
2019-01-23T15:22:26.000Z,98783
2019-01-23T15:24:26.000Z,98789
2019-01-23T15:26:26.000Z,98785
2019-01-23T15:27:26.000Z,98792
2019-01-23T15:28:26.000Z,98790
2019-01-23T15:29:26.000Z,98788
2019-01-23T15:31:26.000Z,98787
2019-01-23T15:33:10.000Z,98790
2019-01-23T15:34:26.000Z,98791
2019-01-23T15:36:11.000Z,98790
2019-01-23T15:37:26.000Z,98804
2019-01-23T15:39:26.000Z,98794
2019-01-23T15:41:11.000Z,98811
2019-01-23T15:42:26.000Z,98800
2019-01-23T15:43:26.000Z,98801
2019-01-23T15:45:26.000Z,98806
2019-01-23T15:47:26.000Z,98803
2019-01-23T15:49:26.000Z,98806
2019-01-23T15:50:26.000Z,98809
2019-01-23T15:51:26.000Z,98817
2019-01-23T15:52:26.000Z,98811
2019-01-23T15:54:26.000Z,98818
2019-01-23T15:55:26.000Z,98818
2019-01-23T15:57:26.000Z,98830
2019-01-23T15:58:26.000Z,98835
2019-01-23T16:00:26.000Z,98837
2019-01-23T16:01:26.000Z,98838
2019-01-23T16:03:26.000Z,98831
2019-01-23T16:04:26.000Z,98834
2019-01-23T16:06:26.000Z,98835
2019-01-23T16:08:26.000Z,98842
2019-01-23T16:10:26.000Z,98841
2019-01-23T16:11:26.000Z,98840
2019-01-23T16:12:55.000Z,98853
2019-01-23T16:14:11.000Z,98844
2019-01-23T16:15:26.000Z,98850
2019-01-23T16:16:26.000Z,98848
2019-01-23T16:17:26.000Z,98850
2019-01-23T16:19:26.000Z,98862
2019-01-23T16:20:26.000Z,98856
2019-01-23T16:21:26.000Z,98854
2019-01-23T16:23:26.000Z,98861
2019-01-23T16:25:26.000Z,98857
2019-01-23T16:27:26.000Z,98861
2019-01-23T16:29:11.000Z,98867
2019-01-23T16:31:26.000Z,98867
2019-01-23T16:33:26.000Z,98886
2019-01-23T16:34:26.000Z,98872
2019-01-23T16:36:26.000Z,98875
2019-01-23T16:37:26.000Z,98888
2019-01-23T16:39:26.000Z,98883
2019-01-23T16:41:10.000Z,98880
2019-01-23T16:42:26.000Z,98885
2019-01-23T16:44:26.000Z,98894
2019-01-23T16:46:11.000Z,98891
2019-01-23T16:47:26.000Z,98892
2019-01-23T16:49:26.000Z,98884
2019-01-23T16:51:11.000Z,98893
2019-01-23T16:52:26.000Z,98892
2019-01-23T16:54:26.000Z,98898
2019-01-23T16:56:26.000Z,98898
2019-01-23T16:58:26.000Z,98893
2019-01-23T17:00:26.000Z,98890
2019-01-23T17:01:26.000Z,98896
2019-01-23T17:02:26.000Z,98904
2019-01-23T17:04:26.000Z,98908
2019-01-23T17:05:26.000Z,98909
2019-01-23T17:06:26.000Z,98913
2019-01-23T17:08:26.000Z,98911
2019-01-23T17:10:26.000Z,98912
2019-01-23T17:12:11.000Z,98930
2019-01-23T17:13:26.000Z,98929
2019-01-23T17:14:26.000Z,98921
2019-01-23T17:25:12.000Z,98925
2019-01-23T17:26:43.000Z,98936
2019-01-23T17:27:58.000Z,98935
2019-01-23T17:29:28.000Z,98937
2019-01-23T17:30:58.000Z,98938
2019-01-23T17:32:43.000Z,98941
2019-01-23T17:34:58.000Z,98949
2019-01-23T17:36:58.000Z,98935
2019-01-23T17:38:58.000Z,98935
2019-01-23T17:39:58.000Z,98936
2019-01-23T17:41:58.000Z,98946
2019-01-23T17:43:43.000Z,98943
2019-01-23T17:44:43.000Z,98948
2019-01-23T17:45:58.000Z,98949
2019-01-23T17:47:43.000Z,98952
2019-01-23T17:48:43.000Z,98951
2019-01-23T17:49:58.000Z,98958
2019-01-23T17:50:58.000Z,98959
2019-01-23T17:52:58.000Z,98962
2019-01-23T17:54:58.000Z,98958
2019-01-23T17:55:58.000Z,98960
2019-01-23T17:57:43.000Z,98959
2019-01-23T17:58:58.000Z,98958
2019-01-23T17:59:58.000Z,98961
2019-01-23T18:01:58.000Z,98972
2019-01-23T18:02:58.000Z,98971
2019-01-23T18:04:58.000Z,98968
2019-01-23T18:06:58.000Z,98971
2019-01-23T18:08:43.000Z,98978
2019-01-23T18:09:43.000Z,98976
2019-01-23T18:10:58.000Z,98979
2019-01-23T18:11:58.000Z,98985
2019-01-23T18:12:58.000Z,98988
2019-01-23T18:14:43.000Z,98992
2019-01-23T18:16:58.000Z,99004
2019-01-23T18:17:58.000Z,99001
2019-01-23T18:19:58.000Z,99010
2019-01-23T18:21:58.000Z,99009
2019-01-23T18:23:42.000Z,99010
2019-01-23T18:24:58.000Z,99011
2019-01-23T18:25:58.000Z,99015
2019-01-23T18:27:27.000Z,99019
2019-01-23T18:28:58.000Z,99020
2019-01-23T18:30:27.000Z,99014
2019-01-23T18:31:58.000Z,99016
2019-01-23T18:33:58.000Z,99019
2019-01-23T18:34:58.000Z,99018
2019-01-23T18:36:58.000Z,99019
2019-01-23T18:38:58.000Z,99021
2019-01-23T18:39:58.000Z,99017
2019-01-23T18:40:58.000Z,99027
2019-01-23T18:42:58.000Z,99026
2019-01-23T18:44:58.000Z,99027
2019-01-23T18:46:43.000Z,99029
2019-01-23T18:48:58.000Z,99031
2019-01-23T18:50:58.000Z,99034
2019-01-23T18:52:58.000Z,99039
2019-01-23T18:54:42.000Z,99029
2019-01-23T18:55:58.000Z,99031
2019-01-23T18:56:58.000Z,99035
2019-01-23T18:57:58.000Z,99033
2019-01-23T18:59:58.000Z,99047
2019-01-23T19:01:58.000Z,99039
2019-01-23T19:02:58.000Z,99039
2019-01-23T19:04:42.000Z,99038
2019-01-23T19:05:58.000Z,99042
2019-01-23T19:06:58.000Z,99037
2019-01-23T19:08:58.000Z,99048
2019-01-23T19:10:42.000Z,99048
2019-01-23T19:11:58.000Z,99056
2019-01-23T19:13:27.000Z,99055
2019-01-23T19:14:58.000Z,99065
2019-01-23T19:16:58.000Z,99060
2019-01-23T19:18:58.000Z,99060
2019-01-23T19:20:42.000Z,99055
2019-01-23T19:21:57.000Z,99061
2019-01-23T19:23:42.000Z,99060
2019-01-23T19:24:57.000Z,99060
2019-01-23T19:25:57.000Z,99061
2019-01-23T19:27:57.000Z,99056
2019-01-23T19:29:42.000Z,99064
2019-01-23T19:31:57.000Z,99066
2019-01-23T19:33:57.000Z,99066
2019-01-23T19:35:57.000Z,99064
2019-01-23T19:37:57.000Z,99063
2019-01-23T19:39:57.000Z,99073
2019-01-23T19:40:57.000Z,99067
2019-01-23T19:42:57.000Z,99067
2019-01-23T19:43:57.000Z,99072
2019-01-23T19:45:57.000Z,99069
2019-01-23T19:47:42.000Z,99065
2019-01-23T19:48:57.000Z,99068
2019-01-23T19:50:42.000Z,99065
2019-01-23T19:51:57.000Z,99068
2019-01-23T19:53:57.000Z,99077
2019-01-23T19:55:57.000Z,99082
2019-01-23T19:57:57.000Z,99087
2019-01-23T19:58:57.000Z,99088
2019-01-23T20:00:57.000Z,99088
2019-01-23T20:01:57.000Z,99086
2019-01-23T20:03:57.000Z,99087
2019-01-23T20:05:57.000Z,99093
2019-01-23T20:07:57.000Z,99095
2019-01-23T20:09:57.000Z,99096
2019-01-23T20:10:57.000Z,99099
2019-01-23T20:12:57.000Z,99106
2019-01-23T20:14:57.000Z,99104
2019-01-23T20:16:57.000Z,99103
2019-01-23T20:18:57.000Z,99100
2019-01-23T20:20:42.000Z,99109
2019-01-23T20:21:57.000Z,99102
2019-01-23T20:22:57.000Z,99101
2019-01-23T20:24:57.000Z,99103
2019-01-23T20:26:58.000Z,99100
2019-01-23T20:27:58.000Z,99106
2019-01-23T20:29:58.000Z,99102
2019-01-23T20:31:58.000Z,99106
2019-01-23T20:33:28.000Z,99110
2019-01-23T20:34:58.000Z,99107
2019-01-23T20:36:58.000Z,99109
2019-01-23T20:38:43.000Z,99113
2019-01-23T20:39:58.000Z,99121
2019-01-23T20:41:58.000Z,99119
2019-01-23T20:43:28.000Z,99122
2019-01-23T21:26:37.000Z,99141
2019-01-23T21:28:22.000Z,99143
2019-01-23T21:29:22.000Z,99141
2019-01-23T21:31:07.000Z,99152
2019-01-23T21:32:22.000Z,99149
2019-01-23T21:34:22.000Z,99152
2019-01-23T21:35:22.000Z,99153
2019-01-23T21:36:22.000Z,99159
2019-01-23T21:38:22.000Z,99162